Time;durP1;ratioP1;P1;durP2;ratioP2;P2;SDS_P1;SDS_P2;PMS_P1;PMS_P2;Temp;Humidity;BMP_temperature;BMP_pressure;BME280_temperature;BME280_humidity;BME280_pressure;Samples;Min_cycle;Max_cycle;Signal;HPM_P1;HPM_P2
2023/01/22 00:00:25;;;;;;;22.17;12.60;;;-1.10;99.90;;;;;;5052727;28;20196;-77
2023/01/22 00:02:51;;;;;;;22.40;13.37;;;-1.10;99.90;;;;;;5050893;28;20655;-78
2023/01/22 00:05:16;;;;;;;22.37;13.00;;;-1.10;99.90;;;;;;5052093;28;20194;-78
2023/01/22 00:07:42;;;;;;;22.53;13.03;;;-1.10;99.90;;;;;;5050618;28;20192;-77
2023/01/22 00:10:08;;;;;;;23.90;13.17;;;-1.10;99.90;;;;;;5052280;28;20268;-78
2023/01/22 00:12:34;;;;;;;21.08;12.90;;;-1.10;99.90;;;;;;5050733;28;20212;-78
2023/01/22 00:15:00;;;;;;;22.45;14.30;;;-1.10;99.90;;;;;;5050640;28;20184;-76
2023/01/22 00:17:25;;;;;;;18.90;12.30;;;-1.10;99.90;;;;;;5052279;28;20194;-77
2023/01/22 00:19:51;;;;;;;23.67;12.63;;;-1.10;99.90;;;;;;5050870;28;20195;-77
2023/01/22 00:22:16;;;;;;;23.80;12.40;;;-1.10;99.90;;;;;;5052084;28;20207;-78
2023/01/22 00:24:42;;;;;;;18.30;11.90;;;-1.10;99.90;;;;;;5051289;28;20192;-76
2023/01/22 00:27:08;;;;;;;19.23;11.97;;;-1.10;99.90;;;;;;5051329;28;20187;-77
2023/01/22 00:29:34;;;;;;;21.40;12.70;;;-1.10;99.90;;;;;;5053409;28;20180;-77
2023/01/22 00:31:59;;;;;;;23.60;12.63;;;-1.10;99.90;;;;;;5053600;28;20434;-78
2023/01/22 00:34:25;;;;;;;20.53;11.73;;;-1.10;99.90;;;;;;5051878;28;20190;-78
2023/01/22 00:36:50;;;;;;;18.10;11.23;;;-1.10;99.90;;;;;;5052447;28;20179;-78
2023/01/22 00:39:16;;;;;;;20.70;12.83;;;-1.00;99.90;;;;;;5051029;28;20184;-78
2023/01/22 00:41:42;;;;;;;23.70;12.47;;;-1.10;99.90;;;;;;5050892;28;20572;-77
2023/01/22 00:44:08;;;;;;;22.80;13.77;;;-1.10;99.90;;;;;;5052750;28;20180;-77
2023/01/22 00:46:33;;;;;;;24.10;13.60;;;-1.10;99.90;;;;;;5051464;28;20186;-77
2023/01/22 00:49:01;;;;;;;21.30;13.90;;;-1.10;99.90;;;;;;5051658;28;20248;-78
2023/01/22 00:51:27;;;;;;;23.15;12.85;;;-1.10;99.90;;;;;;5052033;28;20254;-77
2023/01/22 00:53:53;;;;;;;18.13;11.50;;;-1.10;99.90;;;;;;5035294;28;20187;-77
2023/01/22 00:56:18;;;;;;;20.80;12.63;;;-1.10;99.90;;;;;;5052994;28;20179;-78
2023/01/22 00:58:44;;;;;;;20.73;12.13;;;-1.10;99.90;;;;;;5034487;28;20198;-80
2023/01/22 01:01:13;;;;;;;19.37;12.27;;;-1.10;99.90;;;;;;5032868;28;20254;-79
2023/01/22 01:03:38;;;;;;;19.33;12.35;;;-1.10;99.90;;;;;;5050464;28;20275;-78
2023/01/22 01:06:10;;;;;;;21.70;13.07;;;-1.10;99.90;;;;;;5052392;28;20629;-78
2023/01/22 01:08:38;;;;;;;21.45;11.77;;;-1.10;99.90;;;;;;5050214;28;20275;-79
2023/01/22 01:11:07;;;;;;;23.77;11.98;;;-1.10;99.90;;;;;;5033259;28;20269;-78
2023/01/22 01:13:37;;;;;;;17.23;11.48;;;-1.10;99.90;;;;;;5049864;28;20192;-79
2023/01/22 01:16:20;;;;;;;18.40;11.80;;;-1.10;99.90;;;;;;5049687;28;20189;-78
2023/01/22 01:18:47;;;;;;;21.80;12.95;;;-1.10;99.90;;;;;;5052214;28;20180;-79
2023/01/22 01:21:13;;;;;;;30.08;13.93;;;-1.10;99.90;;;;;;5049674;28;20239;-79
2023/01/22 01:23:39;;;;;;;20.80;12.20;;;-1.10;99.90;;;;;;5051343;28;20176;-78
2023/01/22 01:26:10;;;;;;;20.63;11.50;;;-1.10;99.90;;;;;;5052591;28;20230;-78
2023/01/22 01:28:37;;;;;;;20.40;13.02;;;-1.10;99.90;;;;;;5035071;28;20952;-77
2023/01/22 01:31:08;;;;;;;25.17;13.40;;;-1.10;99.90;;;;;;5052263;28;20223;-78
2023/01/22 01:33:34;;;;;;;21.10;11.73;;;-1.10;99.90;;;;;;5052488;28;20168;-77
2023/01/22 01:36:06;;;;;;;18.57;11.73;;;-1.10;99.90;;;;;;5051504;28;20184;-77
2023/01/22 01:38:32;;;;;;;21.60;12.90;;;-1.10;99.90;;;;;;5052843;28;20410;-79
2023/01/22 01:40:59;;;;;;;23.38;13.57;;;-1.00;99.90;;;;;;5034099;28;20263;-77
2023/01/22 01:43:25;;;;;;;20.05;13.00;;;-1.00;99.90;;;;;;5052500;28;20183;-77
2023/01/22 01:45:51;;;;;;;19.20;11.77;;;-1.00;99.90;;;;;;5050709;28;20187;-77
2023/01/22 01:48:40;;;;;;;19.50;12.40;;;-1.10;99.90;;;;;;5052489;28;20237;-77
2023/01/22 01:51:26;;;;;;;19.88;11.38;;;-1.00;99.90;;;;;;5052470;28;20585;-79
2023/01/22 01:53:52;;;;;;;26.58;14.57;;;-1.10;99.90;;;;;;5051138;28;20160;-78
2023/01/22 01:56:27;;;;;;;18.23;11.60;;;-1.10;99.90;;;;;;5054909;28;20180;-76
2023/01/22 01:58:57;;;;;;;19.60;11.85;;;-1.10;99.90;;;;;;5052913;28;20476;-77
2023/01/22 02:01:24;;;;;;;20.27;12.00;;;-1.10;99.90;;;;;;5051980;28;20367;-77
2023/01/22 02:03:51;;;;;;;19.05;12.25;;;-1.10;99.90;;;;;;5052810;28;20179;-77
2023/01/22 02:06:18;;;;;;;21.08;12.88;;;-1.00;99.90;;;;;;5052041;28;20739;-78
2023/01/22 02:08:46;;;;;;;19.58;11.75;;;-1.00;99.90;;;;;;5049788;28;20195;-77
2023/01/22 02:11:13;;;;;;;20.85;11.02;;;-1.00;99.90;;;;;;5048181;28;20217;-77
2023/01/22 02:13:44;;;;;;;20.30;11.77;;;-1.00;99.90;;;;;;5049397;28;20184;-76
2023/01/22 02:16:10;;;;;;;24.40;12.25;;;-1.00;99.90;;;;;;5030969;28;20187;-76
2023/01/22 02:18:36;;;;;;;22.08;12.52;;;-1.00;99.90;;;;;;5047719;28;20211;-77
2023/01/22 02:21:02;;;;;;;18.58;11.70;;;-1.10;99.90;;;;;;5049282;28;20874;-76
2023/01/22 02:23:30;;;;;;;20.27;12.17;;;-1.00;99.90;;;;;;5049740;28;20266;-77
2023/01/22 02:25:57;;;;;;;20.85;12.57;;;-1.00;99.90;;;;;;5049369;28;20414;-77
2023/01/22 02:28:23;;;;;;;22.60;12.27;;;-1.10;99.90;;;;;;5050207;28;20183;-77
2023/01/22 02:30:49;;;;;;;23.23;11.23;;;-1.00;99.90;;;;;;5047558;28;20238;-77
2023/01/22 02:33:15;;;;;;;21.00;12.50;;;-1.10;99.90;;;;;;5047766;28;20179;-77
2023/01/22 02:35:40;;;;;;;20.98;12.30;;;-1.10;99.90;;;;;;5047568;28;20237;-76
2023/01/22 02:38:06;;;;;;;21.20;12.50;;;-1.00;99.90;;;;;;5048925;28;20911;-76
2023/01/22 02:40:32;;;;;;;17.90;10.83;;;-1.00;99.90;;;;;;5047707;28;20237;-78
2023/01/22 02:42:59;;;;;;;15.82;10.90;;;-1.00;99.90;;;;;;5049185;28;20575;-77
2023/01/22 02:45:24;;;;;;;20.35;12.30;;;-1.00;99.90;;;;;;5047474;28;20202;-77
2023/01/22 02:47:50;;;;;;;20.50;12.03;;;-1.00;99.90;;;;;;5049237;28;20184;-76
2023/01/22 02:50:16;;;;;;;19.17;12.27;;;-1.00;99.90;;;;;;5049303;28;20286;-78
2023/01/22 02:52:42;;;;;;;21.17;12.83;;;-1.00;99.90;;;;;;5049181;28;20470;-78
2023/01/22 02:55:07;;;;;;;29.57;12.70;;;-1.00;99.90;;;;;;5031317;28;20426;-78
2023/01/22 02:57:33;;;;;;;21.30;11.97;;;-0.90;99.90;;;;;;5049875;28;20764;-78
2023/01/22 02:59:59;;;;;;;25.20;13.17;;;-0.90;99.90;;;;;;5053149;28;20499;-78
2023/01/22 03:02:25;;;;;;;20.90;12.23;;;-0.90;99.90;;;;;;5053556;28;20242;-78
2023/01/22 03:04:51;;;;;;;19.77;12.07;;;-0.90;99.90;;;;;;5052019;28;20664;-78
2023/01/22 03:07:17;;;;;;;18.40;11.15;;;-0.90;99.90;;;;;;5035845;28;20196;-77
2023/01/22 03:09:44;;;;;;;22.65;12.98;;;-0.90;99.90;;;;;;5053925;28;20233;-78
2023/01/22 03:12:10;;;;;;;21.95;12.13;;;-0.90;99.90;;;;;;5052178;28;20210;-78
2023/01/22 03:22:50;;;;;;;20.67;13.20;;;-1.00;99.90;;;;;;5053816;28;20283;-77
2023/01/22 03:25:15;;;;;;;21.70;12.67;;;-1.00;99.90;;;;;;5035653;28;20278;-77
2023/01/22 03:28:07;;;;;;;20.67;12.53;;;-1.00;99.90;;;;;;5052031;28;20271;-80
2023/01/22 03:30:27;;;;;;;23.00;12.20;;;-1.00;99.90;;;;;;5051689;28;20216;-79
2023/01/22 03:32:52;;;;;;;22.07;12.27;;;-1.00;99.90;;;;;;5053955;28;20184;-78
2023/01/22 03:35:18;;;;;;;22.87;12.50;;;-1.00;99.90;;;;;;5052436;28;20218;-78
2023/01/22 03:37:44;;;;;;;23.67;14.13;;;-1.00;99.90;;;;;;5052426;28;20211;-77
2023/01/22 03:40:10;;;;;;;25.53;13.30;;;-1.00;99.90;;;;;;5053721;28;20911;-77
2023/01/22 03:42:35;;;;;;;25.05;13.65;;;-1.00;99.90;;;;;;5052090;28;20231;-78
2023/01/22 03:45:19;;;;;;;23.03;12.60;;;-1.00;99.90;;;;;;5053432;28;20262;-78
2023/01/22 03:47:45;;;;;;;22.35;13.80;;;-1.10;99.90;;;;;;5053408;28;20184;-77
2023/01/22 03:50:10;;;;;;;25.03;15.07;;;-1.00;99.90;;;;;;5035844;28;20591;-77
2023/01/22 03:52:36;;;;;;;27.53;13.80;;;-1.00;99.90;;;;;;5052284;28;20200;-77
2023/01/22 03:55:01;;;;;;;21.80;13.80;;;-1.00;99.90;;;;;;5035756;28;20187;-77
2023/01/22 03:57:29;;;;;;;23.53;13.70;;;-1.00;99.90;;;;;;5052559;28;20223;-78
2023/01/22 03:59:54;;;;;;;27.27;15.50;;;-1.00;99.90;;;;;;5053664;28;20192;-77
2023/01/22 04:02:20;;;;;;;29.03;15.23;;;-1.00;99.90;;;;;;5053544;28;20214;-78
2023/01/22 04:04:46;;;;;;;28.73;14.60;;;-1.00;99.90;;;;;;5052535;28;20785;-77
2023/01/22 04:07:12;;;;;;;27.02;15.15;;;-1.00;99.90;;;;;;5050813;28;20195;-77
2023/01/22 04:09:37;;;;;;;28.50;14.97;;;-0.90;99.90;;;;;;5034393;28;20184;-77
2023/01/22 04:12:03;;;;;;;33.87;15.10;;;-0.90;99.90;;;;;;5051842;28;20254;-77
2023/01/22 04:14:29;;;;;;;28.30;13.80;;;-0.90;99.90;;;;;;5052137;28;20184;-77
2023/01/22 04:16:54;;;;;;;27.97;14.67;;;-1.00;99.90;;;;;;5052532;28;20926;-77
2023/01/22 04:19:20;;;;;;;31.60;16.30;;;-0.90;99.90;;;;;;5035556;28;20283;-77
2023/01/22 04:21:47;;;;;;;26.37;15.43;;;-0.90;99.90;;;;;;5051789;28;20218;-77
2023/01/22 04:24:13;;;;;;;29.00;15.13;;;-0.90;99.90;;;;;;5051080;28;20257;-77
2023/01/22 04:26:38;;;;;;;29.77;15.53;;;-0.90;99.90;;;;;;5050435;28;20191;-78
2023/01/22 04:29:04;;;;;;;28.83;15.33;;;-0.90;99.90;;;;;;5050551;28;20188;-76
2023/01/22 04:31:30;;;;;;;28.23;15.43;;;-0.90;99.90;;;;;;5050038;28;20247;-77
2023/01/22 04:33:55;;;;;;;36.80;15.77;;;-0.90;99.90;;;;;;5051301;28;20199;-77
2023/01/22 04:36:21;;;;;;;30.33;16.13;;;-1.00;99.90;;;;;;5049980;28;20188;-78
2023/01/22 04:38:46;;;;;;;32.00;15.77;;;-1.00;99.90;;;;;;5033120;28;20186;-77
2023/01/22 04:41:12;;;;;;;34.87;17.07;;;-1.10;99.90;;;;;;5033034;28;20245;-78
2023/01/22 04:43:37;;;;;;;36.73;16.77;;;-1.00;99.90;;;;;;5049962;28;20188;-78
2023/01/22 04:46:03;;;;;;;35.40;17.80;;;-1.10;99.90;;;;;;5049663;28;20754;-77
2023/01/22 04:48:29;;;;;;;37.60;17.90;;;-1.10;99.90;;;;;;5049426;28;20203;-77
2023/01/22 04:50:54;;;;;;;35.20;17.63;;;-1.10;99.90;;;;;;5050852;28;20246;-80
2023/01/22 04:53:20;;;;;;;37.77;18.20;;;-1.10;99.90;;;;;;5033149;28;20184;-77
2023/01/22 04:55:45;;;;;;;42.77;18.33;;;-1.10;99.90;;;;;;5049720;28;20214;-79
2023/01/22 04:58:11;;;;;;;38.90;18.20;;;-1.00;99.90;;;;;;5050888;28;20205;-77
2023/01/22 05:00:36;;;;;;;38.60;17.90;;;-1.10;99.90;;;;;;5049080;28;20656;-77
2023/01/22 05:03:03;;;;;;;42.00;18.40;;;-1.10;99.90;;;;;;5050987;28;20181;-77
2023/01/22 05:05:30;;;;;;;38.83;17.65;;;-1.00;99.90;;;;;;5050807;28;20726;-78
2023/01/22 05:07:56;;;;;;;38.17;18.40;;;-1.00;99.90;;;;;;5051127;28;20195;-77
2023/01/22 05:10:22;;;;;;;31.57;14.93;;;-1.00;99.90;;;;;;5049327;28;20218;-76
2023/01/22 05:12:49;;;;;;;38.70;17.85;;;-1.00;99.90;;;;;;5049578;28;20275;-77
2023/01/22 05:15:14;;;;;;;34.33;15.32;;;-0.90;99.90;;;;;;5050779;28;20218;-76
2023/01/22 05:17:40;;;;;;;27.97;14.63;;;-1.00;99.90;;;;;;5050579;28;20207;-77
2023/01/22 05:20:06;;;;;;;29.07;14.87;;;-1.00;99.90;;;;;;5050325;28;20188;-78
2023/01/22 05:22:32;;;;;;;23.83;13.27;;;-1.00;99.90;;;;;;5055995;28;20275;-75
2023/01/22 05:24:58;;;;;;;25.97;14.37;;;-0.90;99.90;;;;;;5053954;28;20239;-78
2023/01/22 05:27:23;;;;;;;29.10;15.60;;;-0.90;99.90;;;;;;5053621;28;20294;-78
2023/01/22 05:29:49;;;;;;;30.20;13.87;;;-0.90;99.90;;;;;;5050260;28;20231;-77
2023/01/22 05:32:14;;;;;;;28.30;14.60;;;-0.80;99.90;;;;;;5049027;28;20740;-75
2023/01/22 05:34:40;;;;;;;26.23;13.30;;;-0.80;99.90;;;;;;5048705;28;20687;-77
2023/01/22 05:37:06;;;;;;;24.90;14.20;;;-0.80;99.90;;;;;;5049821;28;20756;-76
2023/01/22 05:39:32;;;;;;;27.93;14.53;;;-0.80;99.90;;;;;;5049707;28;20415;-76
2023/01/22 05:41:57;;;;;;;39.30;16.70;;;-0.80;99.90;;;;;;5048429;28;20218;-76
2023/01/22 05:44:25;;;;;;;34.80;17.63;;;-0.80;99.90;;;;;;5048926;28;20192;-77
2023/01/22 05:46:50;;;;;;;33.67;17.45;;;-0.80;99.90;;;;;;5048652;28;20186;-77
2023/01/22 05:49:16;;;;;;;31.40;15.90;;;-0.80;99.90;;;;;;5049860;28;20266;-77
2023/01/22 05:51:42;;;;;;;31.07;17.03;;;-0.80;99.90;;;;;;5049631;28;20580;-76
2023/01/22 05:54:07;;;;;;;36.20;17.20;;;-0.80;99.90;;;;;;5050316;28;20183;-78
2023/01/22 05:56:33;;;;;;;31.63;16.37;;;-0.70;99.90;;;;;;5048421;28;20180;-77
2023/01/22 05:58:59;;;;;;;36.60;16.80;;;-0.80;99.90;;;;;;5032108;28;20656;-76
2023/01/22 06:01:25;;;;;;;28.20;15.57;;;-0.70;99.90;;;;;;5049768;28;20222;-75
2023/01/22 06:03:51;;;;;;;31.02;16.55;;;-0.80;99.90;;;;;;5049944;28;20188;-75
2023/01/22 06:06:16;;;;;;;29.07;16.20;;;-0.70;99.90;;;;;;5049981;28;20257;-76
2023/01/22 06:08:42;;;;;;;26.93;15.60;;;-0.70;99.90;;;;;;5049933;28;20188;-77
2023/01/22 06:11:14;;;;;;;33.87;16.77;;;-0.70;99.90;;;;;;5052463;28;20219;-77
2023/01/22 06:13:40;;;;;;;32.20;15.85;;;-0.70;99.90;;;;;;5053987;28;20183;-78
2023/01/22 06:16:07;;;;;;;35.50;16.43;;;-0.80;99.90;;;;;;5053166;28;20305;-75
2023/01/22 06:18:33;;;;;;;40.22;18.52;;;-0.80;99.90;;;;;;5049668;28;20176;-75
2023/01/22 06:21:04;;;;;;;32.72;16.00;;;-0.80;99.90;;;;;;5031662;28;20207;-77
2023/01/22 06:23:30;;;;;;;30.70;14.75;;;-0.80;99.90;;;;;;5048099;28;20263;-76
2023/01/22 06:25:57;;;;;;;26.40;14.50;;;-0.80;99.90;;;;;;5049132;28;20278;-76
2023/01/22 06:28:24;;;;;;;29.45;15.45;;;-0.70;99.90;;;;;;5049764;28;20199;-74
2023/01/22 06:30:50;;;;;;;29.38;15.20;;;-0.70;99.90;;;;;;5048908;28;20219;-75
2023/01/22 06:33:16;;;;;;;30.58;14.63;;;-0.70;99.90;;;;;;5048535;28;20176;-75
2023/01/22 06:35:41;;;;;;;27.93;14.70;;;-0.70;99.90;;;;;;5047391;28;20657;-75
2023/01/22 06:38:07;;;;;;;32.07;14.67;;;-0.70;99.90;;;;;;5048733;28;20180;-75
2023/01/22 06:40:33;;;;;;;36.60;16.65;;;-0.70;99.90;;;;;;5048644;28;20187;-76
2023/01/22 06:43:03;;;;;;;37.03;18.67;;;-0.70;99.90;;;;;;5047066;28;20202;-75
2023/01/22 06:45:29;;;;;;;32.90;15.20;;;-0.70;99.90;;;;;;5047226;28;20184;-75
2023/01/22 06:47:54;;;;;;;31.43;15.20;;;-0.70;99.90;;;;;;5047177;28;20190;-75
2023/01/22 06:50:20;;;;;;;43.37;17.10;;;-0.80;99.90;;;;;;5048417;28;20555;-76
2023/01/22 06:52:45;;;;;;;37.47;15.93;;;-0.70;99.90;;;;;;5047066;28;20265;-75
2023/01/22 06:55:11;;;;;;;42.73;17.40;;;-0.70;99.90;;;;;;5030226;28;20554;-75
2023/01/22 06:57:37;;;;;;;37.53;16.80;;;-0.70;99.90;;;;;;5048334;28;20184;-75
2023/01/22 07:00:04;;;;;;;46.13;18.60;;;-0.70;99.90;;;;;;5046708;28;20203;-76
2023/01/22 07:02:30;;;;;;;46.67;18.77;;;-0.70;99.90;;;;;;5048137;28;20600;-75
2023/01/22 07:04:56;;;;;;;41.50;18.08;;;-0.70;99.90;;;;;;5046810;28;20192;-76
2023/01/22 07:07:22;;;;;;;46.05;18.65;;;-0.70;99.90;;;;;;5048413;28;20171;-76
2023/01/22 07:09:47;;;;;;;35.23;16.53;;;-0.60;99.90;;;;;;5046732;28;20671;-76
2023/01/22 07:12:13;;;;;;;48.60;17.50;;;-0.60;99.90;;;;;;5046781;28;20617;-75
2023/01/22 07:14:38;;;;;;;51.47;19.13;;;-0.60;99.90;;;;;;5046918;28;20210;-76
2023/01/22 07:17:04;;;;;;;44.30;18.03;;;-0.60;99.90;;;;;;5048314;28;20184;-76
2023/01/22 07:19:30;;;;;;;53.17;19.10;;;-0.70;99.90;;;;;;5046733;28;20679;-76
2023/01/22 07:21:55;;;;;;;44.20;19.37;;;-0.60;99.90;;;;;;5030346;28;20488;-76
2023/01/22 07:24:21;;;;;;;52.23;18.40;;;-0.60;99.90;;;;;;5048203;28;20861;-75
2023/01/22 07:26:48;;;;;;;51.47;19.73;;;-0.60;99.90;;;;;;5046724;28;20188;-76
2023/01/22 07:29:13;;;;;;;59.53;19.52;;;-0.60;99.90;;;;;;5030402;28;20566;-75
2023/01/22 07:31:39;;;;;;;66.73;18.20;;;-0.60;99.90;;;;;;5048140;28;20212;-75
2023/01/22 07:34:06;;;;;;;62.53;19.13;;;-0.60;99.90;;;;;;5048529;28;20179;-75
2023/01/22 07:36:32;;;;;;;64.93;19.23;;;-0.50;99.90;;;;;;5047035;28;20497;-76
2023/01/22 07:38:57;;;;;;;78.77;19.00;;;-0.50;99.90;;;;;;5046796;28;20271;-75
2023/01/22 07:41:23;;;;;;;46.60;17.50;;;-0.50;99.90;;;;;;5048254;28;20235;-75
2023/01/22 07:43:48;;;;;;;116.30;21.50;;;-0.40;99.90;;;;;;5047145;28;20194;-75
2023/01/22 07:46:14;;;;;;;64.63;21.97;;;-0.40;99.90;;;;;;5050533;28;20191;-76
2023/01/22 07:48:40;;;;;;;60.83;21.90;;;-0.40;99.90;;;;;;5050545;28;20211;-76
2023/01/22 07:51:06;;;;;;;105.43;20.97;;;-0.40;99.90;;;;;;5050400;28;20262;-75
2023/01/22 07:53:32;;;;;;;70.13;18.27;;;-0.50;99.90;;;;;;5050615;28;20450;-75
2023/01/22 07:56:00;;;;;;;74.72;19.00;;;-0.40;99.90;;;;;;5050412;28;20184;-75
2023/01/22 07:58:26;;;;;;;107.18;19.38;;;-0.40;99.90;;;;;;5051608;28;20660;-75
2023/01/22 08:00:52;;;;;;;62.10;17.00;;;-0.40;99.90;;;;;;5049895;28;20227;-75
2023/01/22 08:03:18;;;;;;;163.18;18.83;;;-0.40;99.90;;;;;;5051703;28;20531;-76
2023/01/22 08:05:44;;;;;;;124.73;18.20;;;-0.40;99.90;;;;;;5051385;28;20196;-76
2023/01/22 08:08:13;;;;;;;71.13;15.30;;;-0.40;99.90;;;;;;5048869;28;20669;-75
2023/01/22 08:10:39;;;;;;;78.72;15.73;;;-0.40;99.90;;;;;;5050267;28;20630;-75
2023/01/22 08:13:05;;;;;;;107.77;16.03;;;-0.40;99.90;;;;;;5032464;28;20188;-75
2023/01/22 08:15:31;;;;;;;51.83;16.10;;;-0.30;99.90;;;;;;5051158;28;20436;-75
2023/01/22 08:17:57;;;;;;;52.78;14.32;;;-0.30;99.90;;;;;;5032590;28;20522;-76
2023/01/22 08:20:23;;;;;;;44.23;13.67;;;-0.30;99.90;;;;;;5050545;28;20288;-75
2023/01/22 08:22:49;;;;;;;52.03;14.00;;;-0.30;99.90;;;;;;5050579;28;20414;-76
2023/01/22 08:25:14;;;;;;;51.87;13.90;;;-0.40;99.90;;;;;;5050645;28;20194;-75
2023/01/22 08:27:40;;;;;;;57.90;13.30;;;-0.40;99.90;;;;;;5050520;28;20553;-76
2023/01/22 08:30:07;;;;;;;38.23;14.87;;;-0.30;99.90;;;;;;5048884;28;20445;-76
2023/01/22 08:32:33;;;;;;;43.53;14.70;;;-0.50;99.90;;;;;;5050062;28;20703;-76
2023/01/22 08:34:59;;;;;;;59.00;16.13;;;-0.20;99.90;;;;;;5049908;28;20212;-75
2023/01/22 08:37:25;;;;;;;55.93;15.37;;;-0.20;99.90;;;;;;5050013;28;20767;-76
2023/01/22 08:39:50;;;;;;;83.47;16.33;;;0.00;99.90;;;;;;5050229;28;20188;-75
2023/01/22 08:42:16;;;;;;;69.80;16.07;;;0.00;99.90;;;;;;5049948;28;20597;-75
2023/01/22 08:44:41;;;;;;;47.63;16.73;;;0.10;99.90;;;;;;5048468;28;20176;-75
2023/01/22 08:47:09;;;;;;;42.80;15.40;;;0.10;99.90;;;;;;5049943;28;20180;-76
2023/01/22 08:49:35;;;;;;;49.70;16.55;;;0.20;99.90;;;;;;5049647;28;20177;-76
2023/01/22 08:52:00;;;;;;;49.93;17.70;;;0.20;99.90;;;;;;5048150;28;20886;-75
2023/01/22 08:54:26;;;;;;;53.60;16.73;;;0.30;99.90;;;;;;5048050;28;20184;-76
2023/01/22 08:56:55;;;;;;;41.37;17.10;;;0.30;99.90;;;;;;5048879;28;20524;-76
2023/01/22 08:59:20;;;;;;;63.08;18.23;;;0.30;99.90;;;;;;5031260;28;20664;-76
2023/01/22 09:01:46;;;;;;;40.50;16.67;;;0.30;99.90;;;;;;5030641;28;20273;-75
2023/01/22 09:04:12;;;;;;;35.97;16.17;;;0.30;99.90;;;;;;5047156;28;20192;-75
2023/01/22 09:06:38;;;;;;;35.00;16.50;;;0.30;99.90;;;;;;5047298;28;20301;-76
2023/01/22 09:09:05;;;;;;;33.15;15.77;;;0.30;99.90;;;;;;5048704;28;20241;-75
2023/01/22 09:11:31;;;;;;;31.38;15.05;;;0.40;99.90;;;;;;5048466;28;20221;-75
2023/01/22 09:13:57;;;;;;;33.47;14.00;;;0.40;99.90;;;;;;5048747;28;20186;-76
2023/01/22 09:16:24;;;;;;;32.58;14.07;;;0.50;99.90;;;;;;5048811;28;20909;-75
2023/01/22 09:18:50;;;;;;;33.15;13.68;;;0.50;99.90;;;;;;5048647;28;20278;-76
2023/01/22 09:21:17;;;;;;;32.03;15.67;;;0.70;99.90;;;;;;5048790;28;21022;-76
2023/01/22 09:23:43;;;;;;;39.25;15.90;;;1.00;99.90;;;;;;5048574;28;20183;-75
2023/01/22 09:26:08;;;;;;;45.30;16.97;;;1.00;99.90;;;;;;5030253;28;20210;-76
2023/01/22 09:28:34;;;;;;;37.80;16.93;;;1.00;99.90;;;;;;5048326;28;20271;-75
2023/01/22 09:31:01;;;;;;;35.23;17.20;;;1.00;99.90;;;;;;5048134;28;20258;-75
2023/01/22 09:33:26;;;;;;;32.78;16.73;;;1.00;99.90;;;;;;5048700;28;20725;-75
2023/01/22 09:35:52;;;;;;;30.60;14.30;;;1.00;99.90;;;;;;5048505;28;20188;-76
2023/01/22 09:38:18;;;;;;;30.13;14.87;;;0.90;99.90;;;;;;5048501;28;20704;-76
2023/01/22 09:40:51;;;;;;;30.77;15.00;;;0.90;99.90;;;;;;5048307;28;20630;-75
2023/01/22 09:43:25;;;;;;;30.40;13.85;;;0.90;99.90;;;;;;5046783;28;20260;-76
2023/01/22 09:45:55;;;;;;;29.23;13.18;;;0.80;99.90;;;;;;5046798;28;20203;-75
2023/01/22 09:48:22;;;;;;;26.75;13.45;;;0.90;99.90;;;;;;5048233;28;20214;-75
2023/01/22 09:50:49;;;;;;;24.63;12.68;;;0.80;99.90;;;;;;5046734;28;20224;-76
2023/01/22 09:53:19;;;;;;;33.90;15.60;;;0.90;99.90;;;;;;5048196;28;20176;-76
2023/01/22 09:55:51;;;;;;;34.28;16.67;;;0.90;99.90;;;;;;5048261;28;20183;-76
2023/01/22 09:58:19;;;;;;;25.70;15.18;;;1.00;99.90;;;;;;5048285;28;20211;-76
2023/01/22 10:01:03;;;;;;;23.55;11.98;;;0.90;99.90;;;;;;5048087;28;20238;-75
2023/01/22 10:03:36;;;;;;;22.45;12.15;;;0.70;99.90;;;;;;5030743;28;20219;-75
2023/01/22 10:06:22;;;;;;;23.48;12.35;;;0.70;99.90;;;;;;5048281;28;20283;-75
2023/01/22 10:09:12;;;;;;;22.05;11.60;;;0.60;99.90;;;;;;5047201;28;20730;-75
2023/01/22 10:11:38;;;;;;;23.38;12.95;;;0.70;99.90;;;;;;5048046;28;20719;-76
2023/01/22 10:14:14;;;;;;;26.90;15.15;;;0.70;99.90;;;;;;5046706;28;20283;-75
2023/01/22 10:16:39;;;;;;;23.92;13.30;;;0.80;99.90;;;;;;5048880;28;20719;-76
2023/01/22 10:19:18;;;;;;;26.53;13.63;;;0.80;99.90;;;;;;5048367;28;20207;-76
2023/01/22 10:21:50;;;;;;;33.75;17.42;;;0.70;99.90;;;;;;5048246;28;20847;-75
2023/01/22 10:24:16;;;;;;;33.20;17.40;;;0.80;99.90;;;;;;5048279;28;20195;-75
2023/01/22 10:26:51;;;;;;;33.90;16.30;;;0.80;99.90;;;;;;5047844;28;20183;-76
2023/01/22 10:29:25;;;;;;;31.20;15.85;;;1.00;99.90;;;;;;5048252;28;20183;-76
2023/01/22 10:31:56;;;;;;;27.80;13.93;;;0.90;99.90;;;;;;5047761;28;20235;-76
2023/01/22 10:34:29;;;;;;;26.25;13.85;;;0.90;99.90;;;;;;5046306;28;20188;-76
2023/01/22 10:37:00;;;;;;;27.38;15.15;;;1.10;99.90;;;;;;5047630;28;20637;-76
2023/01/22 10:39:26;;;;;;;23.98;13.50;;;1.10;99.90;;;;;;5047650;28;20186;-76
2023/01/22 10:42:00;;;;;;;30.60;15.80;;;1.10;99.90;;;;;;5047727;28;20304;-75
2023/01/22 10:44:26;;;;;;;27.23;14.52;;;1.10;99.90;;;;;;5046321;28;20184;-75
2023/01/22 10:46:54;;;;;;;25.65;14.13;;;1.10;99.90;;;;;;5047382;28;20281;-76
2023/01/22 10:49:25;;;;;;;26.20;13.98;;;1.00;99.90;;;;;;5047366;28;20291;-76
2023/01/22 10:52:05;;;;;;;31.30;15.80;;;0.90;99.90;;;;;;5047109;28;20220;-75
2023/01/22 10:54:38;;;;;;;37.40;15.48;;;1.00;99.90;;;;;;5047253;28;20175;-74
2023/01/22 10:57:31;;;;;;;37.92;17.52;;;1.10;99.90;;;;;;5045597;28;20165;-75
2023/01/22 11:00:06;;;;;;;32.40;16.38;;;1.20;99.90;;;;;;5028854;28;20251;-74
2023/01/22 11:02:34;;;;;;;26.90;14.10;;;1.30;99.90;;;;;;5047037;28;20782;-75
2023/01/22 11:05:24;;;;;;;30.80;15.18;;;1.40;99.90;;;;;;5045436;28;20687;-75
2023/01/22 11:07:57;;;;;;;31.02;16.20;;;1.50;99.90;;;;;;5046980;28;20176;-75
2023/01/22 11:10:28;;;;;;;26.65;14.18;;;1.60;99.90;;;;;;5046913;28;20319;-76
2023/01/22 11:13:06;;;;;;;24.80;13.93;;;1.70;99.90;;;;;;5046835;28;20214;-75
2023/01/22 11:15:44;;;;;;;27.35;14.80;;;1.70;99.90;;;;;;5047090;28;20459;-75
2023/01/22 11:18:21;;;;;;;26.30;14.35;;;1.80;99.90;;;;;;5046999;28;20296;-75
2023/01/22 11:20:52;;;;;;;28.52;15.07;;;1.70;99.90;;;;;;5051529;28;21008;-75
2023/01/22 11:23:46;;;;;;;27.33;14.77;;;1.70;99.90;;;;;;5049640;28;20252;-75
2023/01/22 11:26:47;;;;;;;25.90;14.82;;;1.80;99.90;;;;;;5023436;28;20197;-75
2023/01/22 11:29:22;;;;;;;20.52;11.70;;;1.90;99.90;;;;;;5000188;28;20680;-74
2023/01/22 11:32:06;;;;;;;23.85;13.15;;;1.90;99.90;;;;;;5052032;28;20211;-75
2023/01/22 11:35:02;;;;;;;23.48;12.75;;;1.90;99.90;;;;;;5052207;28;20791;-75
2023/01/22 11:38:09;;;;;;;24.42;12.80;;;2.00;99.90;;;;;;5052261;28;20208;-75
2023/01/22 11:40:46;;;;;;;25.27;13.48;;;2.00;99.90;;;;;;5051204;28;20232;-75
2023/01/22 11:43:32;;;;;;;26.40;13.60;;;2.00;99.90;;;;;;5050496;28;20195;-75
2023/01/22 11:46:04;;;;;;;21.75;12.32;;;1.90;99.90;;;;;;5052008;28;20188;-76
2023/01/22 11:48:51;;;;;;;20.90;12.07;;;1.90;99.90;;;;;;5050125;28;20193;-76
2023/01/22 11:51:23;;;;;;;25.05;14.15;;;2.00;99.90;;;;;;5051686;28;20216;-75
2023/01/22 11:54:36;;;;;;;20.75;11.35;;;2.00;99.90;;;;;;5051585;28;20196;-75
2023/01/22 11:57:29;;;;;;;22.58;13.30;;;2.00;99.90;;;;;;4989570;28;20197;-76
2023/01/22 12:00:30;;;;;;;32.63;14.93;;;1.90;99.90;;;;;;4989662;28;20202;-75
2023/01/22 12:03:17;;;;;;;31.50;15.98;;;1.90;99.90;;;;;;5044222;28;20199;-75
2023/01/22 12:06:11;;;;;;;30.90;17.30;;;1.90;99.90;;;;;;5051559;28;20212;-76
2023/01/22 12:09:06;;;;;;;27.23;14.60;;;1.90;99.90;;;;;;5050090;28;20188;-76
2023/01/22 12:12:00;;;;;;;27.88;17.25;;;1.80;99.90;;;;;;5051389;28;20647;-75
2023/01/22 12:14:40;;;;;;;28.00;15.45;;;1.80;99.90;;;;;;5051495;28;20223;-76
2023/01/22 12:17:27;;;;;;;28.20;16.00;;;1.80;99.90;;;;;;5051907;28;20593;-75
2023/01/22 12:19:53;;;;;;;26.92;16.15;;;1.70;99.90;;;;;;5051848;28;20182;-75
2023/01/22 12:22:37;;;;;;;27.90;15.10;;;1.60;99.90;;;;;;5049839;28;20204;-75
2023/01/22 12:25:11;;;;;;;27.50;15.43;;;1.50;99.90;;;;;;5051431;28;20263;-75
2023/01/22 12:27:50;;;;;;;27.55;15.23;;;1.50;99.90;;;;;;5051185;28;20215;-75
2023/01/22 12:30:48;;;;;;;28.15;15.15;;;1.40;99.90;;;;;;5049127;28;20188;-74
2023/01/22 12:33:20;;;;;;;26.08;14.60;;;1.30;99.90;;;;;;5045621;28;20607;-75
2023/01/22 12:35:48;;;;;;;26.00;14.70;;;1.30;99.90;;;;;;5050997;28;20227;-75
2023/01/22 12:38:20;;;;;;;42.70;15.60;;;1.30;99.90;;;;;;5050824;28;20188;-75
2023/01/22 12:41:24;;;;;;;27.88;15.80;;;1.20;99.90;;;;;;5050720;28;20200;-75
2023/01/22 12:43:56;;;;;;;29.83;17.13;;;1.30;99.90;;;;;;5049411;28;20725;-75
2023/01/22 12:46:37;;;;;;;25.20;14.30;;;1.30;99.90;;;;;;5050723;28;20188;-75
2023/01/22 12:49:08;;;;;;;30.15;16.88;;;1.20;99.90;;;;;;5050426;28;20180;-75